Overview Statistics Trail Chart Weather Telemetry Raw packets
 

This is the latest recevied weather packets stored in our database for station/object OK1FET-5. If no packets are shown the sender has not sent any weather packets the latest 10 day(s).

<< 51 52 53 54 >>
Time Temp. Humidity Pressure Rain* Wind** Luminosity Snow
1787740686 20° C 63% 1021.5 hPa - - - -
1787740090 20° C 62% 1021.4 hPa - - - -
1787739494 20.56° C 61% 1021.2 hPa - - - -
1787738898 21.67° C 58% 1021.2 hPa - - - -
1787738303 21.11° C 61% 1021.5 hPa - - - -
1787737707 20° C 65% 1021.5 hPa - - - -
1787736515 17.78° C 71% 1021.6 hPa - - - -
1787735324 17.22° C 73% 1021.7 hPa - - - -
1787734132 16.67° C 73% 1021.6 hPa - - - -
1787732941 16.67° C 73% 1021.5 hPa - - - -
1787732345 16.67° C 74% 1021.5 hPa - - - -
1787731749 16.67° C 73% 1021.4 hPa - - - -
1787731153 16.67° C 72% 1021.3 hPa - - - -
1787730558 17.22° C 72% 1021 hPa - - - -
1787729366 18.89° C 70% 1020.7 hPa - - - -
1787728770 16.67° C 76% 1020.7 hPa - - - -
1787728174 16.67° C 77% 1020.7 hPa - - - -
1787727579 16.11° C 77% 1020.7 hPa - - - -
1787726983 15.56° C 78% 1020.7 hPa - - - -
1787726387 15.56° C 77% 1020.6 hPa - - - -
1787725792 15.56° C 78% 1020.6 hPa - - - -
1787725196 15° C 77% 1020.6 hPa - - - -
1787724600 15° C 77% 1020.6 hPa - - - -
1787724004 15° C 77% 1020.6 hPa - - - -
1787723409 15° C 76% 1020.5 hPa - - - -

* Rain since midnight (hover to see other rain measurements)
** Current wind speed in m/s (hover to see current wind gust speed)